sensor_id;sensor_type;location;lat;lon;timestamp;P1;durP1;ratioP1;P2;durP2;ratioP2
5869;SDS011;2961;47.702;9.410;2023-05-20T00:01:39;16.37;;;9.73;;
5869;SDS011;2961;47.702;9.410;2023-05-20T00:04:06;12.57;;;10.07;;
5869;SDS011;2961;47.702;9.410;2023-05-20T00:06:32;13.03;;;9.87;;
5869;SDS011;2961;47.702;9.410;2023-05-20T00:08:59;15.27;;;9.80;;
5869;SDS011;2961;47.702;9.410;2023-05-20T00:11:27;11.77;;;9.70;;
5869;SDS011;2961;47.702;9.410;2023-05-20T00:13:54;10.20;;;8.30;;
5869;SDS011;2961;47.702;9.410;2023-05-20T00:16:21;12.60;;;9.67;;
5869;SDS011;2961;47.702;9.410;2023-05-20T00:18:48;11.13;;;9.60;;
5869;SDS011;2961;47.702;9.410;2023-05-20T00:21:15;13.07;;;8.93;;
5869;SDS011;2961;47.702;9.410;2023-05-20T00:23:41;10.13;;;9.10;;
5869;SDS011;2961;47.702;9.410;2023-05-20T00:26:08;13.57;;;10.30;;
5869;SDS011;2961;47.702;9.410;2023-05-20T00:28:36;19.77;;;11.43;;
5869;SDS011;2961;47.702;9.410;2023-05-20T00:31:03;15.27;;;11.47;;
5869;SDS011;2961;47.702;9.410;2023-05-20T00:33:30;15.43;;;10.23;;
5869;SDS011;2961;47.702;9.410;2023-05-20T00:35:57;15.30;;;12.03;;
5869;SDS011;2961;47.702;9.410;2023-05-20T00:38:24;11.43;;;10.23;;
5869;SDS011;2961;47.702;9.410;2023-05-20T00:40:50;15.73;;;11.30;;
5869;SDS011;2961;47.702;9.410;2023-05-20T00:43:17;11.70;;;10.50;;
5869;SDS011;2961;47.702;9.410;2023-05-20T00:45:45;14.70;;;10.17;;
5869;SDS011;2961;47.702;9.410;2023-05-20T00:48:13;12.33;;;10.97;;
5869;SDS011;2961;47.702;9.410;2023-05-20T00:50:40;14.83;;;11.43;;
5869;SDS011;2961;47.702;9.410;2023-05-20T00:53:07;14.20;;;11.17;;
5869;SDS011;2961;47.702;9.410;2023-05-20T00:55:34;11.40;;;10.03;;
5869;SDS011;2961;47.702;9.410;2023-05-20T00:58:01;17.70;;;11.03;;
5869;SDS011;2961;47.702;9.410;2023-05-20T01:00:28;13.70;;;10.40;;
5869;SDS011;2961;47.702;9.410;2023-05-20T01:02:56;13.70;;;10.17;;
5869;SDS011;2961;47.702;9.410;2023-05-20T01:05:24;12.33;;;11.10;;
5869;SDS011;2961;47.702;9.410;2023-05-20T01:07:51;13.60;;;11.00;;
5869;SDS011;2961;47.702;9.410;2023-05-20T01:10:17;16.27;;;10.97;;
5869;SDS011;2961;47.702;9.410;2023-05-20T01:12:47;16.37;;;10.70;;
5869;SDS011;2961;47.702;9.410;2023-05-20T01:15:19;11.30;;;10.10;;
5869;SDS011;2961;47.702;9.410;2023-05-20T01:17:49;16.67;;;12.07;;
5869;SDS011;2961;47.702;9.410;2023-05-20T01:20:23;11.57;;;10.40;;
5869;SDS011;2961;47.702;9.410;2023-05-20T01:22:53;13.83;;;11.20;;
5869;SDS011;2961;47.702;9.410;2023-05-20T01:25:21;14.47;;;10.73;;
5869;SDS011;2961;47.702;9.410;2023-05-20T01:27:49;16.67;;;10.50;;
5869;SDS011;2961;47.702;9.410;2023-05-20T01:30:16;13.47;;;10.13;;
5869;SDS011;2961;47.702;9.410;2023-05-20T01:32:45;14.47;;;10.23;;
5869;SDS011;2961;47.702;9.410;2023-05-20T01:35:15;14.33;;;10.33;;
5869;SDS011;2961;47.702;9.410;2023-05-20T01:37:44;14.20;;;10.37;;
5869;SDS011;2961;47.702;9.410;2023-05-20T01:40:14;18.07;;;10.83;;
5869;SDS011;2961;47.702;9.410;2023-05-20T01:42:41;14.33;;;10.83;;
5869;SDS011;2961;47.702;9.410;2023-05-20T01:45:10;14.67;;;11.20;;
5869;SDS011;2961;47.702;9.410;2023-05-20T01:47:37;14.80;;;12.13;;
5869;SDS011;2961;47.702;9.410;2023-05-20T01:50:04;16.00;;;10.80;;
5869;SDS011;2961;47.702;9.410;2023-05-20T01:52:32;13.80;;;10.73;;
5869;SDS011;2961;47.702;9.410;2023-05-20T01:54:58;17.63;;;10.77;;
5869;SDS011;2961;47.702;9.410;2023-05-20T01:57:27;20.83;;;11.27;;
5869;SDS011;2961;47.702;9.410;2023-05-20T01:59:53;14.47;;;11.00;;
5869;SDS011;2961;47.702;9.410;2023-05-20T02:02:20;18.80;;;10.20;;
5869;SDS011;2961;47.702;9.410;2023-05-20T02:04:50;10.77;;;9.40;;
5869;SDS011;2961;47.702;9.410;2023-05-20T02:07:18;11.97;;;9.97;;
5869;SDS011;2961;47.702;9.410;2023-05-20T02:09:45;12.13;;;10.50;;
5869;SDS011;2961;47.702;9.410;2023-05-20T02:12:12;11.47;;;9.13;;
5869;SDS011;2961;47.702;9.410;2023-05-20T02:14:42;16.37;;;11.40;;
5869;SDS011;2961;47.702;9.410;2023-05-20T02:17:10;13.93;;;10.03;;
5869;SDS011;2961;47.702;9.410;2023-05-20T02:19:38;11.30;;;9.50;;
5869;SDS011;2961;47.702;9.410;2023-05-20T02:22:05;19.00;;;10.30;;
5869;SDS011;2961;47.702;9.410;2023-05-20T02:24:32;19.97;;;11.87;;
5869;SDS011;2961;47.702;9.410;2023-05-20T02:26:59;12.33;;;9.80;;
5869;SDS011;2961;47.702;9.410;2023-05-20T02:29:27;18.67;;;10.40;;
5869;SDS011;2961;47.702;9.410;2023-05-20T02:31:55;11.50;;;10.20;;
5869;SDS011;2961;47.702;9.410;2023-05-20T02:34:22;15.17;;;10.67;;
5869;SDS011;2961;47.702;9.410;2023-05-20T02:36:49;16.23;;;11.70;;
5869;SDS011;2961;47.702;9.410;2023-05-20T02:39:16;15.40;;;11.87;;
5869;SDS011;2961;47.702;9.410;2023-05-20T02:41:43;13.53;;;11.87;;
5869;SDS011;2961;47.702;9.410;2023-05-20T02:44:10;12.10;;;10.77;;
5869;SDS011;2961;47.702;9.410;2023-05-20T02:46:37;11.40;;;10.03;;
5869;SDS011;2961;47.702;9.410;2023-05-20T02:49:05;17.20;;;10.90;;
5869;SDS011;2961;47.702;9.410;2023-05-20T02:51:32;19.07;;;11.53;;
5869;SDS011;2961;47.702;9.410;2023-05-20T02:53:58;14.53;;;11.50;;
5869;SDS011;2961;47.702;9.410;2023-05-20T02:56:25;17.97;;;11.50;;
5869;SDS011;2961;47.702;9.410;2023-05-20T02:58:52;14.13;;;11.50;;
5869;SDS011;2961;47.702;9.410;2023-05-20T03:01:19;14.57;;;12.60;;
5869;SDS011;2961;47.702;9.410;2023-05-20T03:03:47;17.67;;;11.47;;
5869;SDS011;2961;47.702;9.410;2023-05-20T03:06:15;16.50;;;11.63;;
5869;SDS011;2961;47.702;9.410;2023-05-20T03:08:42;13.63;;;12.03;;
5869;SDS011;2961;47.702;9.410;2023-05-20T03:11:08;18.33;;;13.10;;
5869;SDS011;2961;47.702;9.410;2023-05-20T03:13:35;16.07;;;11.60;;
5869;SDS011;2961;47.702;9.410;2023-05-20T03:16:02;14.30;;;10.90;;
5869;SDS011;2961;47.702;9.410;2023-05-20T03:18:29;13.80;;;11.93;;
5869;SDS011;2961;47.702;9.410;2023-05-20T03:20:57;26.77;;;13.90;;
5869;SDS011;2961;47.702;9.410;2023-05-20T03:23:25;16.90;;;11.73;;
5869;SDS011;2961;47.702;9.410;2023-05-20T03:25:52;24.47;;;14.37;;
5869;SDS011;2961;47.702;9.410;2023-05-20T03:28:19;18.60;;;12.77;;
5869;SDS011;2961;47.702;9.410;2023-05-20T03:30:45;18.67;;;13.80;;
5869;SDS011;2961;47.702;9.410;2023-05-20T03:33:12;25.90;;;14.03;;
5869;SDS011;2961;47.702;9.410;2023-05-20T03:35:39;18.00;;;13.90;;
5869;SDS011;2961;47.702;9.410;2023-05-20T03:38:06;15.47;;;13.37;;
5869;SDS011;2961;47.702;9.410;2023-05-20T03:40:35;14.17;;;12.20;;
5869;SDS011;2961;47.702;9.410;2023-05-20T03:43:01;19.03;;;13.37;;
5869;SDS011;2961;47.702;9.410;2023-05-20T03:45:28;13.70;;;12.03;;
5869;SDS011;2961;47.702;9.410;2023-05-20T03:47:55;17.20;;;12.40;;
5869;SDS011;2961;47.702;9.410;2023-05-20T03:50:22;14.07;;;12.57;;
5869;SDS011;2961;47.702;9.410;2023-05-20T03:52:49;15.13;;;12.03;;
5869;SDS011;2961;47.702;9.410;2023-05-20T03:55:15;15.97;;;11.57;;
5869;SDS011;2961;47.702;9.410;2023-05-20T03:57:45;16.63;;;12.90;;
5869;SDS011;2961;47.702;9.410;2023-05-20T04:00:12;18.03;;;13.10;;
5869;SDS011;2961;47.702;9.410;2023-05-20T04:02:40;16.00;;;12.23;;
5869;SDS011;2961;47.702;9.410;2023-05-20T04:05:07;13.90;;;12.50;;
5869;SDS011;2961;47.702;9.410;2023-05-20T04:07:35;16.50;;;11.80;;
5869;SDS011;2961;47.702;9.410;2023-05-20T04:10:03;14.40;;;11.27;;
5869;SDS011;2961;47.702;9.410;2023-05-20T04:12:30;14.80;;;11.80;;
5869;SDS011;2961;47.702;9.410;2023-05-20T04:14:59;18.23;;;13.50;;
5869;SDS011;2961;47.702;9.410;2023-05-20T04:17:26;14.60;;;11.47;;
5869;SDS011;2961;47.702;9.410;2023-05-20T04:19:54;13.40;;;11.50;;
5869;SDS011;2961;47.702;9.410;2023-05-20T04:22:22;13.40;;;11.77;;
5869;SDS011;2961;47.702;9.410;2023-05-20T04:24:49;17.33;;;12.60;;
5869;SDS011;2961;47.702;9.410;2023-05-20T04:27:15;15.77;;;11.93;;
5869;SDS011;2961;47.702;9.410;2023-05-20T04:29:42;12.90;;;10.63;;
5869;SDS011;2961;47.702;9.410;2023-05-20T04:32:11;15.10;;;11.90;;
5869;SDS011;2961;47.702;9.410;2023-05-20T04:34:38;11.80;;;10.37;;
5869;SDS011;2961;47.702;9.410;2023-05-20T04:37:05;15.10;;;10.63;;
5869;SDS011;2961;47.702;9.410;2023-05-20T04:39:33;14.90;;;10.20;;
5869;SDS011;2961;47.702;9.410;2023-05-20T04:42:00;11.00;;;9.73;;
5869;SDS011;2961;47.702;9.410;2023-05-20T04:44:27;12.20;;;9.77;;
5869;SDS011;2961;47.702;9.410;2023-05-20T04:46:54;9.60;;;8.70;;
5869;SDS011;2961;47.702;9.410;2023-05-20T04:49:23;15.57;;;8.87;;
5869;SDS011;2961;47.702;9.410;2023-05-20T04:51:50;10.60;;;9.47;;
5869;SDS011;2961;47.702;9.410;2023-05-20T04:54:19;11.80;;;8.30;;
5869;SDS011;2961;47.702;9.410;2023-05-20T04:56:46;16.97;;;8.73;;
5869;SDS011;2961;47.702;9.410;2023-05-20T04:59:13;11.13;;;7.60;;
5869;SDS011;2961;47.702;9.410;2023-05-20T05:01:39;8.63;;;6.90;;
5869;SDS011;2961;47.702;9.410;2023-05-20T05:04:06;9.53;;;7.97;;
5869;SDS011;2961;47.702;9.410;2023-05-20T05:06:34;13.33;;;7.13;;
5869;SDS011;2961;47.702;9.410;2023-05-20T05:09:01;10.20;;;6.97;;
5869;SDS011;2961;47.702;9.410;2023-05-20T05:11:28;13.40;;;7.87;;
5869;SDS011;2961;47.702;9.410;2023-05-20T05:13:55;12.40;;;8.33;;
5869;SDS011;2961;47.702;9.410;2023-05-20T05:16:22;9.40;;;7.67;;
5869;SDS011;2961;47.702;9.410;2023-05-20T05:18:49;16.23;;;7.97;;
5869;SDS011;2961;47.702;9.410;2023-05-20T05:21:15;8.90;;;7.83;;
5869;SDS011;2961;47.702;9.410;2023-05-20T05:23:44;8.33;;;7.60;;
5869;SDS011;2961;47.702;9.410;2023-05-20T05:26:10;7.17;;;6.63;;
5869;SDS011;2961;47.702;9.410;2023-05-20T05:28:37;8.20;;;7.40;;
5869;SDS011;2961;47.702;9.410;2023-05-20T05:31:06;7.07;;;6.37;;
5869;SDS011;2961;47.702;9.410;2023-05-20T05:33:33;8.00;;;7.20;;
5869;SDS011;2961;47.702;9.410;2023-05-20T05:36:00;11.80;;;7.73;;
5869;SDS011;2961;47.702;9.410;2023-05-20T05:38:26;11.03;;;7.30;;
5869;SDS011;2961;47.702;9.410;2023-05-20T05:40:54;10.30;;;7.20;;
5869;SDS011;2961;47.702;9.410;2023-05-20T05:43:21;9.37;;;8.17;;
5869;SDS011;2961;47.702;9.410;2023-05-20T05:45:48;9.10;;;7.50;;
5869;SDS011;2961;47.702;9.410;2023-05-20T05:48:15;9.37;;;8.23;;
5869;SDS011;2961;47.702;9.410;2023-05-20T05:50:42;10.53;;;7.73;;
5869;SDS011;2961;47.702;9.410;2023-05-20T05:53:09;7.40;;;6.70;;
5869;SDS011;2961;47.702;9.410;2023-05-20T05:55:36;8.53;;;7.37;;
5869;SDS011;2961;47.702;9.410;2023-05-20T05:58:04;9.97;;;8.13;;
5869;SDS011;2961;47.702;9.410;2023-05-20T06:00:31;7.40;;;6.70;;
5869;SDS011;2961;47.702;9.410;2023-05-20T06:02:58;10.27;;;8.00;;
5869;SDS011;2961;47.702;9.410;2023-05-20T06:05:25;8.30;;;7.57;;
5869;SDS011;2961;47.702;9.410;2023-05-20T06:07:52;9.30;;;8.30;;
5869;SDS011;2961;47.702;9.410;2023-05-20T06:10:18;8.93;;;7.97;;
5869;SDS011;2961;47.702;9.410;2023-05-20T06:12:45;9.20;;;7.37;;
5869;SDS011;2961;47.702;9.410;2023-05-20T06:15:13;8.17;;;7.30;;
5869;SDS011;2961;47.702;9.410;2023-05-20T06:17:40;8.90;;;8.10;;
5869;SDS011;2961;47.702;9.410;2023-05-20T06:20:07;9.73;;;8.20;;
5869;SDS011;2961;47.702;9.410;2023-05-20T06:22:34;13.07;;;8.87;;
5869;SDS011;2961;47.702;9.410;2023-05-20T06:25:01;11.20;;;9.30;;
5869;SDS011;2961;47.702;9.410;2023-05-20T06:27:28;12.23;;;9.63;;
5869;SDS011;2961;47.702;9.410;2023-05-20T06:29:55;14.23;;;8.53;;
5869;SDS011;2961;47.702;9.410;2023-05-20T06:32:23;8.90;;;8.00;;
5869;SDS011;2961;47.702;9.410;2023-05-20T06:34:50;8.43;;;7.50;;
5869;SDS011;2961;47.702;9.410;2023-05-20T06:37:17;8.20;;;7.20;;
5869;SDS011;2961;47.702;9.410;2023-05-20T06:39:43;13.93;;;7.33;;
5869;SDS011;2961;47.702;9.410;2023-05-20T06:42:11;9.40;;;7.83;;
5869;SDS011;2961;47.702;9.410;2023-05-20T06:44:38;7.80;;;7.10;;
5869;SDS011;2961;47.702;9.410;2023-05-20T06:47:05;8.27;;;7.40;;
5869;SDS011;2961;47.702;9.410;2023-05-20T06:49:33;8.97;;;7.90;;
5869;SDS011;2961;47.702;9.410;2023-05-20T06:51:59;9.90;;;8.40;;
5869;SDS011;2961;47.702;9.410;2023-05-20T06:54:26;10.27;;;7.80;;
5869;SDS011;2961;47.702;9.410;2023-05-20T06:56:53;9.00;;;8.20;;
5869;SDS011;2961;47.702;9.410;2023-05-20T06:59:20;8.70;;;7.80;;
5869;SDS011;2961;47.702;9.410;2023-05-20T07:01:46;9.80;;;8.80;;
5869;SDS011;2961;47.702;9.410;2023-05-20T07:04:13;8.50;;;7.70;;
5869;SDS011;2961;47.702;9.410;2023-05-20T07:06:41;9.53;;;8.60;;
5869;SDS011;2961;47.702;9.410;2023-05-20T07:09:08;9.43;;;8.10;;
5869;SDS011;2961;47.702;9.410;2023-05-20T07:11:35;10.97;;;8.93;;
5869;SDS011;2961;47.702;9.410;2023-05-20T07:14:01;10.40;;;8.47;;
5869;SDS011;2961;47.702;9.410;2023-05-20T07:16:28;10.60;;;8.97;;
5869;SDS011;2961;47.702;9.410;2023-05-20T07:18:56;12.33;;;9.40;;
5869;SDS011;2961;47.702;9.410;2023-05-20T07:21:23;13.73;;;9.70;;
5869;SDS011;2961;47.702;9.410;2023-05-20T07:23:51;10.60;;;9.50;;
5869;SDS011;2961;47.702;9.410;2023-05-20T07:26:18;11.90;;;9.33;;
5869;SDS011;2961;47.702;9.410;2023-05-20T07:28:45;13.80;;;11.50;;
5869;SDS011;2961;47.702;9.410;2023-05-20T07:31:13;11.30;;;9.30;;
5869;SDS011;2961;47.702;9.410;2023-05-20T07:33:40;11.10;;;9.50;;
5869;SDS011;2961;47.702;9.410;2023-05-20T07:36:07;9.90;;;8.90;;
5869;SDS011;2961;47.702;9.410;2023-05-20T07:38:34;12.27;;;10.27;;
5869;SDS011;2961;47.702;9.410;2023-05-20T07:41:02;10.50;;;9.50;;
5869;SDS011;2961;47.702;9.410;2023-05-20T07:43:30;11.83;;;9.37;;
5869;SDS011;2961;47.702;9.410;2023-05-20T07:45:57;9.10;;;8.17;;
5869;SDS011;2961;47.702;9.410;2023-05-20T07:48:24;14.13;;;9.30;;
5869;SDS011;2961;47.702;9.410;2023-05-20T07:50:50;15.10;;;10.70;;
5869;SDS011;2961;47.702;9.410;2023-05-20T07:53:17;20.73;;;10.90;;
5869;SDS011;2961;47.702;9.410;2023-05-20T07:55:44;11.90;;;10.40;;
5869;SDS011;2961;47.702;9.410;2023-05-20T07:58:12;11.50;;;10.30;;
5869;SDS011;2961;47.702;9.410;2023-05-20T08:00:39;12.27;;;10.00;;
5869;SDS011;2961;47.702;9.410;2023-05-20T08:03:06;20.20;;;11.40;;
5869;SDS011;2961;47.702;9.410;2023-05-20T08:05:35;11.93;;;10.70;;
5869;SDS011;2961;47.702;9.410;2023-05-20T08:08:02;12.23;;;11.03;;
5869;SDS011;2961;47.702;9.410;2023-05-20T08:10:29;13.32;;;11.30;;
5869;SDS011;2961;47.702;9.410;2023-05-20T08:12:56;17.83;;;12.07;;
5869;SDS011;2961;47.702;9.410;2023-05-20T08:15:24;15.80;;;12.17;;
5869;SDS011;2961;47.702;9.410;2023-05-20T08:17:51;16.47;;;12.00;;
5869;SDS011;2961;47.702;9.410;2023-05-20T08:20:18;17.47;;;10.80;;
5869;SDS011;2961;47.702;9.410;2023-05-20T08:22:45;18.97;;;11.13;;
5869;SDS011;2961;47.702;9.410;2023-05-20T08:25:12;15.00;;;10.57;;
5869;SDS011;2961;47.702;9.410;2023-05-20T08:27:40;13.70;;;10.53;;
5869;SDS011;2961;47.702;9.410;2023-05-20T08:30:07;13.10;;;11.57;;
5869;SDS011;2961;47.702;9.410;2023-05-20T08:32:36;17.20;;;12.20;;
5869;SDS011;2961;47.702;9.410;2023-05-20T08:35:03;15.40;;;10.50;;
5869;SDS011;2961;47.702;9.410;2023-05-20T08:37:30;17.67;;;10.27;;
5869;SDS011;2961;47.702;9.410;2023-05-20T08:39:57;17.73;;;9.63;;
5869;SDS011;2961;47.702;9.410;2023-05-20T08:42:24;15.27;;;11.77;;
5869;SDS011;2961;47.702;9.410;2023-05-20T08:44:51;17.00;;;11.17;;
5869;SDS011;2961;47.702;9.410;2023-05-20T08:47:20;12.20;;;10.90;;
5869;SDS011;2961;47.702;9.410;2023-05-20T08:49:48;12.00;;;10.70;;
5869;SDS011;2961;47.702;9.410;2023-05-20T08:52:15;12.37;;;11.13;;
5869;SDS011;2961;47.702;9.410;2023-05-20T08:54:47;18.00;;;11.50;;
5869;SDS011;2961;47.702;9.410;2023-05-20T08:57:15;12.90;;;11.50;;
5869;SDS011;2961;47.702;9.410;2023-05-20T08:59:44;15.07;;;11.87;;
5869;SDS011;2961;47.702;9.410;2023-05-20T09:02:12;12.80;;;10.70;;
5869;SDS011;2961;47.702;9.410;2023-05-20T09:04:38;14.40;;;11.13;;
5869;SDS011;2961;47.702;9.410;2023-05-20T09:07:07;13.97;;;10.23;;
5869;SDS011;2961;47.702;9.410;2023-05-20T09:09:34;17.23;;;12.07;;
5869;SDS011;2961;47.702;9.410;2023-05-20T09:12:01;16.93;;;12.13;;
5869;SDS011;2961;47.702;9.410;2023-05-20T09:14:28;14.00;;;11.63;;
5869;SDS011;2961;47.702;9.410;2023-05-20T09:16:55;12.93;;;11.57;;
5869;SDS011;2961;47.702;9.410;2023-05-20T09:19:22;11.67;;;10.47;;
5869;SDS011;2961;47.702;9.410;2023-05-20T09:21:50;12.37;;;10.50;;
5869;SDS011;2961;47.702;9.410;2023-05-20T09:24:21;10.93;;;9.80;;
5869;SDS011;2961;47.702;9.410;2023-05-20T09:26:49;12.53;;;9.83;;
5869;SDS011;2961;47.702;9.410;2023-05-20T09:29:16;12.10;;;10.90;;
5869;SDS011;2961;47.702;9.410;2023-05-20T09:31:43;16.43;;;11.60;;
5869;SDS011;2961;47.702;9.410;2023-05-20T09:34:10;12.80;;;10.70;;
5869;SDS011;2961;47.702;9.410;2023-05-20T09:36:37;16.87;;;11.80;;
5869;SDS011;2961;47.702;9.410;2023-05-20T09:39:05;14.20;;;11.60;;
5869;SDS011;2961;47.702;9.410;2023-05-20T09:41:40;18.60;;;11.77;;
5869;SDS011;2961;47.702;9.410;2023-05-20T09:44:14;11.83;;;10.60;;
5869;SDS011;2961;47.702;9.410;2023-05-20T09:46:42;15.03;;;11.60;;
5869;SDS011;2961;47.702;9.410;2023-05-20T09:49:11;13.03;;;11.63;;
5869;SDS011;2961;47.702;9.410;2023-05-20T09:51:39;15.23;;;11.40;;
5869;SDS011;2961;47.702;9.410;2023-05-20T09:54:09;13.10;;;11.33;;
5869;SDS011;2961;47.702;9.410;2023-05-20T09:56:39;14.83;;;11.40;;
5869;SDS011;2961;47.702;9.410;2023-05-20T09:59:06;13.80;;;11.83;;
5869;SDS011;2961;47.702;9.410;2023-05-20T10:01:35;15.87;;;13.70;;
5869;SDS011;2961;47.702;9.410;2023-05-20T10:04:03;14.47;;;12.60;;
5869;SDS011;2961;47.702;9.410;2023-05-20T10:06:49;14.40;;;11.20;;
5869;SDS011;2961;47.702;9.410;2023-05-20T10:09:39;12.50;;;10.50;;
5869;SDS011;2961;47.702;9.410;2023-05-20T10:12:18;12.80;;;10.83;;
5869;SDS011;2961;47.702;9.410;2023-05-20T10:15:02;17.00;;;11.83;;
5869;SDS011;2961;47.702;9.410;2023-05-20T10:17:38;10.73;;;8.80;;
5869;SDS011;2961;47.702;9.410;2023-05-20T10:20:09;11.50;;;10.33;;
5869;SDS011;2961;47.702;9.410;2023-05-20T10:22:36;11.40;;;10.07;;
5869;SDS011;2961;47.702;9.410;2023-05-20T10:25:05;12.73;;;10.90;;
5869;SDS011;2961;47.702;9.410;2023-05-20T10:27:42;13.57;;;11.60;;
5869;SDS011;2961;47.702;9.410;2023-05-20T10:30:16;14.63;;;12.37;;
5869;SDS011;2961;47.702;9.410;2023-05-20T10:32:48;12.60;;;11.10;;
5869;SDS011;2961;47.702;9.410;2023-05-20T10:35:20;11.43;;;10.33;;
5869;SDS011;2961;47.702;9.410;2023-05-20T10:37:50;14.20;;;10.63;;
5869;SDS011;2961;47.702;9.410;2023-05-20T10:40:18;11.23;;;9.37;;
5869;SDS011;2961;47.702;9.410;2023-05-20T10:42:47;10.27;;;9.33;;
5869;SDS011;2961;47.702;9.410;2023-05-20T10:45:23;11.03;;;9.37;;
5869;SDS011;2961;47.702;9.410;2023-05-20T10:47:54;15.30;;;11.77;;
5869;SDS011;2961;47.702;9.410;2023-05-20T10:50:26;15.63;;;10.40;;
5869;SDS011;2961;47.702;9.410;2023-05-20T10:52:54;13.40;;;10.30;;
5869;SDS011;2961;47.702;9.410;2023-05-20T10:55:21;9.50;;;8.50;;
5869;SDS011;2961;47.702;9.410;2023-05-20T10:57:50;11.93;;;9.63;;
5869;SDS011;2961;47.702;9.410;2023-05-20T11:00:16;9.80;;;8.77;;
5869;SDS011;2961;47.702;9.410;2023-05-20T11:02:45;14.00;;;10.30;;
5869;SDS011;2961;47.702;9.410;2023-05-20T11:05:14;14.87;;;10.07;;
5869;SDS011;2961;47.702;9.410;2023-05-20T11:07:42;13.73;;;10.40;;
5869;SDS011;2961;47.702;9.410;2023-05-20T11:10:09;15.93;;;10.33;;
5869;SDS011;2961;47.702;9.410;2023-05-20T11:12:36;13.03;;;9.60;;
5869;SDS011;2961;47.702;9.410;2023-05-20T11:15:04;12.03;;;9.60;;
5869;SDS011;2961;47.702;9.410;2023-05-20T11:17:32;11.93;;;8.50;;
5869;SDS011;2961;47.702;9.410;2023-05-20T11:19:59;13.33;;;8.97;;
5869;SDS011;2961;47.702;9.410;2023-05-20T11:22:26;13.60;;;9.70;;
5869;SDS011;2961;47.702;9.410;2023-05-20T11:24:53;12.63;;;10.40;;
5869;SDS011;2961;47.702;9.410;2023-05-20T11:27:19;11.70;;;9.90;;
5869;SDS011;2961;47.702;9.410;2023-05-20T11:29:48;13.00;;;10.90;;
5869;SDS011;2961;47.702;9.410;2023-05-20T11:32:19;13.93;;;9.50;;
5869;SDS011;2961;47.702;9.410;2023-05-20T11:34:49;11.70;;;10.20;;
5869;SDS011;2961;47.702;9.410;2023-05-20T11:37:17;12.00;;;9.80;;
5869;SDS011;2961;47.702;9.410;2023-05-20T11:39:45;11.23;;;10.10;;
5869;SDS011;2961;47.702;9.410;2023-05-20T11:42:13;12.43;;;10.27;;
5869;SDS011;2961;47.702;9.410;2023-05-20T11:44:41;11.07;;;9.97;;
5869;SDS011;2961;47.702;9.410;2023-05-20T11:47:09;13.30;;;10.37;;
5869;SDS011;2961;47.702;9.410;2023-05-20T11:49:39;14.10;;;9.70;;
5869;SDS011;2961;47.702;9.410;2023-05-20T11:52:07;16.53;;;10.00;;
5869;SDS011;2961;47.702;9.410;2023-05-20T11:54:35;10.07;;;9.00;;
5869;SDS011;2961;47.702;9.410;2023-05-20T11:57:02;10.20;;;8.87;;
5869;SDS011;2961;47.702;9.410;2023-05-20T11:59:29;14.17;;;10.10;;
5869;SDS011;2961;47.702;9.410;2023-05-20T12:01:56;14.37;;;11.20;;
5869;SDS011;2961;47.702;9.410;2023-05-20T12:04:23;13.20;;;10.70;;
5869;SDS011;2961;47.702;9.410;2023-05-20T12:06:51;12.77;;;10.33;;
5869;SDS011;2961;47.702;9.410;2023-05-20T12:09:18;12.27;;;9.13;;
5869;SDS011;2961;47.702;9.410;2023-05-20T12:11:44;12.10;;;9.60;;
5869;SDS011;2961;47.702;9.410;2023-05-20T12:14:11;10.90;;;9.60;;
5869;SDS011;2961;47.702;9.410;2023-05-20T12:16:38;12.40;;;9.60;;
5869;SDS011;2961;47.702;9.410;2023-05-20T12:19:05;13.10;;;10.40;;
5869;SDS011;2961;47.702;9.410;2023-05-20T12:21:32;11.63;;;10.30;;
5869;SDS011;2961;47.702;9.410;2023-05-20T12:24:00;13.27;;;11.10;;
5869;SDS011;2961;47.702;9.410;2023-05-20T12:26:29;14.53;;;10.20;;
5869;SDS011;2961;47.702;9.410;2023-05-20T12:28:57;9.70;;;8.70;;
5869;SDS011;2961;47.702;9.410;2023-05-20T12:31:23;10.73;;;9.60;;
5869;SDS011;2961;47.702;9.410;2023-05-20T12:33:50;10.00;;;9.00;;
5869;SDS011;2961;47.702;9.410;2023-05-20T12:36:17;11.03;;;9.93;;
5869;SDS011;2961;47.702;9.410;2023-05-20T12:38:44;13.37;;;9.40;;
5869;SDS011;2961;47.702;9.410;2023-05-20T12:41:12;10.70;;;9.70;;
5869;SDS011;2961;47.702;9.410;2023-05-20T12:43:39;11.70;;;10.07;;
5869;SDS011;2961;47.702;9.410;2023-05-20T12:46:06;16.13;;;8.70;;
5869;SDS011;2961;47.702;9.410;2023-05-20T12:48:33;12.53;;;10.83;;
5869;SDS011;2961;47.702;9.410;2023-05-20T12:51:00;13.27;;;10.53;;
5869;SDS011;2961;47.702;9.410;2023-05-20T12:53:27;10.23;;;9.23;;
5869;SDS011;2961;47.702;9.410;2023-05-20T12:55:54;12.57;;;10.00;;
5869;SDS011;2961;47.702;9.410;2023-05-20T12:58:22;11.50;;;10.30;;
5869;SDS011;2961;47.702;9.410;2023-05-20T13:00:49;14.03;;;9.53;;
5869;SDS011;2961;47.702;9.410;2023-05-20T13:03:15;12.03;;;10.70;;
5869;SDS011;2961;47.702;9.410;2023-05-20T13:05:42;10.03;;;9.03;;
5869;SDS011;2961;47.702;9.410;2023-05-20T13:08:09;11.67;;;10.47;;
5869;SDS011;2961;47.702;9.410;2023-05-20T13:10:36;10.70;;;9.60;;
5869;SDS011;2961;47.702;9.410;2023-05-20T13:13:03;10.43;;;9.30;;
5869;SDS011;2961;47.702;9.410;2023-05-20T13:15:32;11.23;;;8.37;;
5869;SDS011;2961;47.702;9.410;2023-05-20T13:17:58;10.70;;;9.60;;
5869;SDS011;2961;47.702;9.410;2023-05-20T13:20:27;11.07;;;8.87;;
5869;SDS011;2961;47.702;9.410;2023-05-20T13:22:55;15.60;;;9.63;;
5869;SDS011;2961;47.702;9.410;2023-05-20T13:25:22;14.53;;;9.40;;
5869;SDS011;2961;47.702;9.410;2023-05-20T13:27:48;8.80;;;7.90;;
5869;SDS011;2961;47.702;9.410;2023-05-20T13:30:15;14.00;;;9.10;;
5869;SDS011;2961;47.702;9.410;2023-05-20T13:32:43;10.33;;;8.80;;
5869;SDS011;2961;47.702;9.410;2023-05-20T13:35:10;10.43;;;7.97;;
5869;SDS011;2961;47.702;9.410;2023-05-20T13:37:38;11.63;;;9.10;;
5869;SDS011;2961;47.702;9.410;2023-05-20T13:40:05;9.83;;;8.90;;
5869;SDS011;2961;47.702;9.410;2023-05-20T13:42:33;10.63;;;8.50;;
5869;SDS011;2961;47.702;9.410;2023-05-20T13:45:00;11.87;;;8.17;;
5869;SDS011;2961;47.702;9.410;2023-05-20T13:47:27;10.00;;;8.53;;
5869;SDS011;2961;47.702;9.410;2023-05-20T13:49:55;11.83;;;8.00;;
5869;SDS011;2961;47.702;9.410;2023-05-20T13:52:21;11.13;;;8.60;;
5869;SDS011;2961;47.702;9.410;2023-05-20T13:54:48;8.80;;;7.90;;
5869;SDS011;2961;47.702;9.410;2023-05-20T13:57:15;9.87;;;8.97;;
5869;SDS011;2961;47.702;9.410;2023-05-20T13:59:42;10.50;;;8.85;;
5869;SDS011;2961;47.702;9.410;2023-05-20T14:02:09;10.00;;;8.30;;
5869;SDS011;2961;47.702;9.410;2023-05-20T14:04:35;12.50;;;9.70;;
5869;SDS011;2961;47.702;9.410;2023-05-20T14:07:04;9.60;;;8.60;;
5869;SDS011;2961;47.702;9.410;2023-05-20T14:09:31;10.13;;;8.30;;
5869;SDS011;2961;47.702;9.410;2023-05-20T14:11:58;14.30;;;9.63;;
5869;SDS011;2961;47.702;9.410;2023-05-20T14:14:25;8.70;;;7.80;;
5869;SDS011;2961;47.702;9.410;2023-05-20T14:16:52;8.50;;;7.07;;
5869;SDS011;2961;47.702;9.410;2023-05-20T14:19:18;9.13;;;8.17;;
5869;SDS011;2961;47.702;9.410;2023-05-20T14:21:45;10.70;;;7.57;;
5869;SDS011;2961;47.702;9.410;2023-05-20T14:24:13;9.03;;;8.10;;
5869;SDS011;2961;47.702;9.410;2023-05-20T14:26:40;8.17;;;7.20;;
5869;SDS011;2961;47.702;9.410;2023-05-20T14:29:07;9.77;;;7.57;;
5869;SDS011;2961;47.702;9.410;2023-05-20T14:31:34;18.33;;;9.60;;
5869;SDS011;2961;47.702;9.410;2023-05-20T14:34:02;11.43;;;9.93;;
5869;SDS011;2961;47.702;9.410;2023-05-20T14:36:29;11.73;;;7.43;;
5869;SDS011;2961;47.702;9.410;2023-05-20T14:38:56;9.17;;;8.27;;
5869;SDS011;2961;47.702;9.410;2023-05-20T14:41:24;8.77;;;7.20;;
5869;SDS011;2961;47.702;9.410;2023-05-20T14:43:51;9.80;;;8.80;;
5869;SDS011;2961;47.702;9.410;2023-05-20T14:46:17;10.30;;;8.70;;
5869;SDS011;2961;47.702;9.410;2023-05-20T14:48:44;8.97;;;8.17;;
5869;SDS011;2961;47.702;9.410;2023-05-20T14:51:11;10.10;;;7.77;;
5869;SDS011;2961;47.702;9.410;2023-05-20T14:53:38;8.80;;;7.90;;
5869;SDS011;2961;47.702;9.410;2023-05-20T14:56:04;10.40;;;7.10;;
5869;SDS011;2961;47.702;9.410;2023-05-20T14:58:33;7.40;;;6.70;;